sensor_id;sensor_type;location;lat;lon;timestamp;temperature;humidity
18126;DHT22;53956;52.442;13.284;2023-03-14T00:00:58;14.40;99.90
18126;DHT22;53956;52.442;13.284;2023-03-14T00:03:25;14.40;99.90
18126;DHT22;53956;52.442;13.284;2023-03-14T00:05:51;14.40;99.90
18126;DHT22;53956;52.442;13.284;2023-03-14T00:08:18;14.40;99.90
18126;DHT22;53956;52.442;13.284;2023-03-14T00:10:46;14.40;99.90
18126;DHT22;53956;52.442;13.284;2023-03-14T00:13:15;14.40;99.90
18126;DHT22;53956;52.442;13.284;2023-03-14T00:15:41;14.30;99.90
18126;DHT22;53956;52.442;13.284;2023-03-14T00:18:08;14.30;99.90
18126;DHT22;53956;52.442;13.284;2023-03-14T00:20:35;14.30;99.90
18126;DHT22;53956;52.442;13.284;2023-03-14T00:23:02;14.20;99.90
18126;DHT22;53956;52.442;13.284;2023-03-14T00:25:28;14.30;99.90
18126;DHT22;53956;52.442;13.284;2023-03-14T00:27:55;14.30;99.90
18126;DHT22;53956;52.442;13.284;2023-03-14T00:30:23;14.30;99.90
18126;DHT22;53956;52.442;13.284;2023-03-14T00:32:50;14.30;99.90
18126;DHT22;53956;52.442;13.284;2023-03-14T00:35:16;14.30;99.90
18126;DHT22;53956;52.442;13.284;2023-03-14T00:37:43;14.20;99.90
18126;DHT22;53956;52.442;13.284;2023-03-14T00:40:10;14.20;99.90
18126;DHT22;53956;52.442;13.284;2023-03-14T00:42:37;14.30;99.90
18126;DHT22;53956;52.442;13.284;2023-03-14T00:45:04;14.20;99.90
18126;DHT22;53956;52.442;13.284;2023-03-14T00:47:34;14.00;99.90
18126;DHT22;53956;52.442;13.284;2023-03-14T00:50:01;14.10;99.90
18126;DHT22;53956;52.442;13.284;2023-03-14T00:52:27;14.10;99.90
18126;DHT22;53956;52.442;13.284;2023-03-14T00:54:54;14.10;99.90
18126;DHT22;53956;52.442;13.284;2023-03-14T00:57:21;14.00;99.90
18126;DHT22;53956;52.442;13.284;2023-03-14T00:59:47;14.10;99.90
18126;DHT22;53956;52.442;13.284;2023-03-14T01:02:14;14.10;99.90
18126;DHT22;53956;52.442;13.284;2023-03-14T01:04:42;14.10;99.90
18126;DHT22;53956;52.442;13.284;2023-03-14T01:07:09;14.00;99.90
18126;DHT22;53956;52.442;13.284;2023-03-14T01:09:38;14.00;99.90
18126;DHT22;53956;52.442;13.284;2023-03-14T01:12:05;14.10;99.90
18126;DHT22;53956;52.442;13.284;2023-03-14T01:14:31;14.00;99.90
18126;DHT22;53956;52.442;13.284;2023-03-14T01:16:58;14.10;99.90
18126;DHT22;53956;52.442;13.284;2023-03-14T01:19:27;13.90;99.90
18126;DHT22;53956;52.442;13.284;2023-03-14T01:21:55;13.90;99.90
18126;DHT22;53956;52.442;13.284;2023-03-14T01:24:22;13.90;99.90
18126;DHT22;53956;52.442;13.284;2023-03-14T01:26:49;13.90;99.90
18126;DHT22;53956;52.442;13.284;2023-03-14T01:29:15;13.80;99.90
18126;DHT22;53956;52.442;13.284;2023-03-14T01:31:42;13.90;99.90
18126;DHT22;53956;52.442;13.284;2023-03-14T01:34:09;13.90;99.90
18126;DHT22;53956;52.442;13.284;2023-03-14T01:36:35;13.90;99.90
18126;DHT22;53956;52.442;13.284;2023-03-14T01:39:04;13.90;99.90
18126;DHT22;53956;52.442;13.284;2023-03-14T01:41:32;13.80;99.90
18126;DHT22;53956;52.442;13.284;2023-03-14T01:43:59;13.80;99.90
18126;DHT22;53956;52.442;13.284;2023-03-14T01:46:34;13.80;99.90
18126;DHT22;53956;52.442;13.284;2023-03-14T01:49:06;13.80;99.90
18126;DHT22;53956;52.442;13.284;2023-03-14T01:51:38;13.80;99.90
18126;DHT22;53956;52.442;13.284;2023-03-14T01:54:14;13.80;99.90
18126;DHT22;53956;52.442;13.284;2023-03-14T01:56:45;13.70;99.90
18126;DHT22;53956;52.442;13.284;2023-03-14T01:59:13;13.70;99.90
18126;DHT22;53956;52.442;13.284;2023-03-14T02:01:43;13.70;99.90
18126;DHT22;53956;52.442;13.284;2023-03-14T02:04:10;13.70;99.90
18126;DHT22;53956;52.442;13.284;2023-03-14T02:06:44;13.70;99.90
18126;DHT22;53956;52.442;13.284;2023-03-14T02:09:15;13.70;99.90
18126;DHT22;53956;52.442;13.284;2023-03-14T02:11:43;13.80;99.90
18126;DHT22;53956;52.442;13.284;2023-03-14T02:14:33;13.70;99.90
18126;DHT22;53956;52.442;13.284;2023-03-14T02:17:18;13.80;99.90
18126;DHT22;53956;52.442;13.284;2023-03-14T02:20:13;13.70;99.90
18126;DHT22;53956;52.442;13.284;2023-03-14T02:22:52;13.70;99.90
18126;DHT22;53956;52.442;13.284;2023-03-14T02:25:25;13.80;99.90
18126;DHT22;53956;52.442;13.284;2023-03-14T02:27:55;13.70;99.90
18126;DHT22;53956;52.442;13.284;2023-03-14T02:30:24;13.70;99.90
18126;DHT22;53956;52.442;13.284;2023-03-14T02:32:54;13.70;99.90
18126;DHT22;53956;52.442;13.284;2023-03-14T02:35:23;13.60;99.90
18126;DHT22;53956;52.442;13.284;2023-03-14T02:37:53;13.70;99.90
18126;DHT22;53956;52.442;13.284;2023-03-14T02:40:23;13.60;99.90
18126;DHT22;53956;52.442;13.284;2023-03-14T02:42:52;13.60;99.90
18126;DHT22;53956;52.442;13.284;2023-03-14T02:45:39;13.70;99.90
18126;DHT22;53956;52.442;13.284;2023-03-14T02:48:11;13.70;99.90
18126;DHT22;53956;52.442;13.284;2023-03-14T02:50:40;13.70;99.90
18126;DHT22;53956;52.442;13.284;2023-03-14T02:53:07;13.70;99.90
18126;DHT22;53956;52.442;13.284;2023-03-14T02:55:34;13.70;99.90
18126;DHT22;53956;52.442;13.284;2023-03-14T02:58:06;13.70;99.90
18126;DHT22;53956;52.442;13.284;2023-03-14T03:00:34;13.70;99.90
18126;DHT22;53956;52.442;13.284;2023-03-14T03:03:04;13.70;99.90
18126;DHT22;53956;52.442;13.284;2023-03-14T03:05:31;13.60;99.90
18126;DHT22;53956;52.442;13.284;2023-03-14T03:07:59;13.70;99.90
18126;DHT22;53956;52.442;13.284;2023-03-14T03:10:26;13.70;99.90
18126;DHT22;53956;52.442;13.284;2023-03-14T03:12:54;13.70;99.90
18126;DHT22;53956;52.442;13.284;2023-03-14T03:15:24;13.70;99.90
18126;DHT22;53956;52.442;13.284;2023-03-14T03:17:52;13.70;99.90
18126;DHT22;53956;52.442;13.284;2023-03-14T03:20:19;13.60;99.90
18126;DHT22;53956;52.442;13.284;2023-03-14T03:22:46;13.60;99.90
18126;DHT22;53956;52.442;13.284;2023-03-14T03:25:14;13.60;99.90
18126;DHT22;53956;52.442;13.284;2023-03-14T03:27:40;13.70;99.90
18126;DHT22;53956;52.442;13.284;2023-03-14T03:30:08;13.70;99.90
18126;DHT22;53956;52.442;13.284;2023-03-14T03:32:36;13.60;99.90
18126;DHT22;53956;52.442;13.284;2023-03-14T03:35:05;13.60;99.90
18126;DHT22;53956;52.442;13.284;2023-03-14T03:37:36;13.60;99.90
18126;DHT22;53956;52.442;13.284;2023-03-14T03:40:06;13.60;99.90
18126;DHT22;53956;52.442;13.284;2023-03-14T03:42:35;13.70;99.90
18126;DHT22;53956;52.442;13.284;2023-03-14T03:45:03;13.60;99.90
18126;DHT22;53956;52.442;13.284;2023-03-14T03:47:32;13.70;99.90
18126;DHT22;53956;52.442;13.284;2023-03-14T03:50:00;13.70;99.90
18126;DHT22;53956;52.442;13.284;2023-03-14T03:52:27;13.70;99.90
18126;DHT22;53956;52.442;13.284;2023-03-14T03:54:54;13.70;99.90
18126;DHT22;53956;52.442;13.284;2023-03-14T03:57:21;13.60;99.90
18126;DHT22;53956;52.442;13.284;2023-03-14T03:59:49;13.70;99.90
18126;DHT22;53956;52.442;13.284;2023-03-14T04:02:16;13.60;99.90
18126;DHT22;53956;52.442;13.284;2023-03-14T04:04:42;13.60;99.90
18126;DHT22;53956;52.442;13.284;2023-03-14T04:07:09;13.60;99.90
18126;DHT22;53956;52.442;13.284;2023-03-14T04:09:40;13.60;99.90
18126;DHT22;53956;52.442;13.284;2023-03-14T04:12:21;13.60;99.90
18126;DHT22;53956;52.442;13.284;2023-03-14T04:14:58;13.60;99.90
18126;DHT22;53956;52.442;13.284;2023-03-14T04:17:24;13.70;99.90
18126;DHT22;53956;52.442;13.284;2023-03-14T04:19:51;13.60;99.90
18126;DHT22;53956;52.442;13.284;2023-03-14T04:22:21;13.70;99.90
18126;DHT22;53956;52.442;13.284;2023-03-14T04:24:51;13.60;99.90
18126;DHT22;53956;52.442;13.284;2023-03-14T04:27:19;13.60;99.90
18126;DHT22;53956;52.442;13.284;2023-03-14T04:29:47;13.60;99.90
18126;DHT22;53956;52.442;13.284;2023-03-14T04:32:18;13.50;99.90
18126;DHT22;53956;52.442;13.284;2023-03-14T04:34:44;13.50;99.90
18126;DHT22;53956;52.442;13.284;2023-03-14T04:37:11;13.60;99.90
18126;DHT22;53956;52.442;13.284;2023-03-14T04:39:42;13.60;99.90
18126;DHT22;53956;52.442;13.284;2023-03-14T04:42:23;13.50;99.90
18126;DHT22;53956;52.442;13.284;2023-03-14T04:44:50;13.60;99.90
18126;DHT22;53956;52.442;13.284;2023-03-14T04:47:19;13.60;99.90
18126;DHT22;53956;52.442;13.284;2023-03-14T04:49:47;13.60;99.90
18126;DHT22;53956;52.442;13.284;2023-03-14T04:52:15;13.50;99.90
18126;DHT22;53956;52.442;13.284;2023-03-14T04:54:42;13.60;99.90
18126;DHT22;53956;52.442;13.284;2023-03-14T04:57:09;13.50;99.90
18126;DHT22;53956;52.442;13.284;2023-03-14T04:59:38;13.50;99.90
18126;DHT22;53956;52.442;13.284;2023-03-14T05:02:43;13.60;99.90
18126;DHT22;53956;52.442;13.284;2023-03-14T05:05:26;13.60;99.90
18126;DHT22;53956;52.442;13.284;2023-03-14T05:08:11;13.50;99.90
18126;DHT22;53956;52.442;13.284;2023-03-14T05:10:58;13.60;99.90
18126;DHT22;53956;52.442;13.284;2023-03-14T05:13:43;13.60;99.90
18126;DHT22;53956;52.442;13.284;2023-03-14T05:16:29;13.60;99.90
18126;DHT22;53956;52.442;13.284;2023-03-14T05:19:11;13.50;99.90
18126;DHT22;53956;52.442;13.284;2023-03-14T05:21:57;13.60;99.90
18126;DHT22;53956;52.442;13.284;2023-03-14T05:24:40;13.70;99.90
18126;DHT22;53956;52.442;13.284;2023-03-14T05:27:26;13.80;99.90
18126;DHT22;53956;52.442;13.284;2023-03-14T05:30:04;13.90;99.90
18126;DHT22;53956;52.442;13.284;2023-03-14T05:32:42;13.70;99.90
18126;DHT22;53956;52.442;13.284;2023-03-14T05:35:30;13.70;99.90
18126;DHT22;53956;52.442;13.284;2023-03-14T05:38:27;13.70;99.90
18126;DHT22;53956;52.442;13.284;2023-03-14T05:41:07;13.70;99.90
18126;DHT22;53956;52.442;13.284;2023-03-14T05:44:02;13.70;99.90
18126;DHT22;53956;52.442;13.284;2023-03-14T05:46:40;13.80;99.90
18126;DHT22;53956;52.442;13.284;2023-03-14T05:49:29;13.70;99.90
18126;DHT22;53956;52.442;13.284;2023-03-14T05:52:07;13.60;99.90
18126;DHT22;53956;52.442;13.284;2023-03-14T05:54:36;13.70;99.90
18126;DHT22;53956;52.442;13.284;2023-03-14T05:57:25;13.70;99.90
18126;DHT22;53956;52.442;13.284;2023-03-14T06:00:12;13.50;99.90
18126;DHT22;53956;52.442;13.284;2023-03-14T06:02:40;13.50;99.90
18126;DHT22;53956;52.442;13.284;2023-03-14T06:05:19;13.60;99.90
18126;DHT22;53956;52.442;13.284;2023-03-14T06:07:46;13.60;99.90
18126;DHT22;53956;52.442;13.284;2023-03-14T06:10:13;13.60;99.90
18126;DHT22;53956;52.442;13.284;2023-03-14T06:12:40;13.60;99.90
18126;DHT22;53956;52.442;13.284;2023-03-14T06:15:08;13.70;99.90
18126;DHT22;53956;52.442;13.284;2023-03-14T06:17:35;13.60;99.90
18126;DHT22;53956;52.442;13.284;2023-03-14T06:20:08;13.70;99.90
18126;DHT22;53956;52.442;13.284;2023-03-14T06:22:36;13.60;99.90
18126;DHT22;53956;52.442;13.284;2023-03-14T06:25:05;13.60;99.90
18126;DHT22;53956;52.442;13.284;2023-03-14T06:27:32;13.60;99.90
18126;DHT22;53956;52.442;13.284;2023-03-14T06:29:59;13.70;99.90
18126;DHT22;53956;52.442;13.284;2023-03-14T06:32:30;13.70;99.90
18126;DHT22;53956;52.442;13.284;2023-03-14T06:35:01;13.70;99.90
18126;DHT22;53956;52.442;13.284;2023-03-14T06:37:33;13.70;99.90
18126;DHT22;53956;52.442;13.284;2023-03-14T06:40:03;13.80;99.90
18126;DHT22;53956;52.442;13.284;2023-03-14T06:42:48;13.80;99.90
18126;DHT22;53956;52.442;13.284;2023-03-14T06:45:16;13.90;99.90
18126;DHT22;53956;52.442;13.284;2023-03-14T06:47:43;13.90;99.90
18126;DHT22;53956;52.442;13.284;2023-03-14T06:50:10;14.00;99.90
18126;DHT22;53956;52.442;13.284;2023-03-14T06:52:38;14.10;99.90
18126;DHT22;53956;52.442;13.284;2023-03-14T06:55:08;14.00;99.90
18126;DHT22;53956;52.442;13.284;2023-03-14T06:57:36;14.30;99.90
18126;DHT22;53956;52.442;13.284;2023-03-14T07:00:03;14.50;99.90
18126;DHT22;53956;52.442;13.284;2023-03-14T07:02:31;14.40;99.90
18126;DHT22;53956;52.442;13.284;2023-03-14T07:04:59;14.40;99.90
18126;DHT22;53956;52.442;13.284;2023-03-14T07:07:26;14.60;99.90
18126;DHT22;53956;52.442;13.284;2023-03-14T07:09:53;14.80;99.90
18126;DHT22;53956;52.442;13.284;2023-03-14T07:12:21;14.90;99.90
18126;DHT22;53956;52.442;13.284;2023-03-14T07:14:48;14.80;99.90
18126;DHT22;53956;52.442;13.284;2023-03-14T07:17:15;14.70;99.90
18126;DHT22;53956;52.442;13.284;2023-03-14T07:19:42;14.80;99.90
18126;DHT22;53956;52.442;13.284;2023-03-14T07:22:09;14.70;99.90
18126;DHT22;53956;52.442;13.284;2023-03-14T07:24:35;14.60;99.90
18126;DHT22;53956;52.442;13.284;2023-03-14T07:27:03;15.00;99.90
18126;DHT22;53956;52.442;13.284;2023-03-14T07:29:31;15.50;97.40
18126;DHT22;53956;52.442;13.284;2023-03-14T07:31:59;16.10;95.80
18126;DHT22;53956;52.442;13.284;2023-03-14T07:34:26;16.70;93.60
18126;DHT22;53956;52.442;13.284;2023-03-14T07:36:54;16.80;93.00
18126;DHT22;53956;52.442;13.284;2023-03-14T07:39:21;16.30;93.50
18126;DHT22;53956;52.442;13.284;2023-03-14T07:42:05;16.50;93.40
18126;DHT22;53956;52.442;13.284;2023-03-14T07:44:33;16.30;94.10
18126;DHT22;53956;52.442;13.284;2023-03-14T07:47:00;16.20;94.10
18126;DHT22;53956;52.442;13.284;2023-03-14T07:49:26;16.00;94.40
18126;DHT22;53956;52.442;13.284;2023-03-14T07:51:53;15.80;95.10
18126;DHT22;53956;52.442;13.284;2023-03-14T07:54:20;15.50;96.10
18126;DHT22;53956;52.442;13.284;2023-03-14T07:56:47;15.10;98.50
18126;DHT22;53956;52.442;13.284;2023-03-14T07:59:14;15.10;99.20
18126;DHT22;53956;52.442;13.284;2023-03-14T08:01:42;15.10;99.10
18126;DHT22;53956;52.442;13.284;2023-03-14T08:04:09;15.00;99.30
18126;DHT22;53956;52.442;13.284;2023-03-14T08:06:36;14.90;99.90
18126;DHT22;53956;52.442;13.284;2023-03-14T08:09:03;14.90;99.90
18126;DHT22;53956;52.442;13.284;2023-03-14T08:11:32;14.90;99.90
18126;DHT22;53956;52.442;13.284;2023-03-14T08:13:59;14.90;99.70
18126;DHT22;53956;52.442;13.284;2023-03-14T08:16:25;14.80;99.90
18126;DHT22;53956;52.442;13.284;2023-03-14T08:18:53;15.00;99.90
18126;DHT22;53956;52.442;13.284;2023-03-14T08:21:20;14.90;99.90
18126;DHT22;53956;52.442;13.284;2023-03-14T08:23:46;14.60;99.90
18126;DHT22;53956;52.442;13.284;2023-03-14T08:26:13;14.70;99.90
18126;DHT22;53956;52.442;13.284;2023-03-14T08:28:40;14.70;99.90
18126;DHT22;53956;52.442;13.284;2023-03-14T08:31:07;14.70;99.90
18126;DHT22;53956;52.442;13.284;2023-03-14T08:33:33;14.60;99.90
18126;DHT22;53956;52.442;13.284;2023-03-14T08:36:02;14.60;99.90
18126;DHT22;53956;52.442;13.284;2023-03-14T08:38:28;14.60;99.90
18126;DHT22;53956;52.442;13.284;2023-03-14T08:40:56;14.50;99.90
18126;DHT22;53956;52.442;13.284;2023-03-14T08:43:23;14.70;99.90
18126;DHT22;53956;52.442;13.284;2023-03-14T08:45:50;14.60;99.90
18126;DHT22;53956;52.442;13.284;2023-03-14T08:48:16;14.60;99.90
18126;DHT22;53956;52.442;13.284;2023-03-14T08:50:44;14.60;99.90
18126;DHT22;53956;52.442;13.284;2023-03-14T08:53:13;14.60;99.90
18126;DHT22;53956;52.442;13.284;2023-03-14T08:55:39;14.60;99.90
18126;DHT22;53956;52.442;13.284;2023-03-14T08:58:06;14.60;99.90
18126;DHT22;53956;52.442;13.284;2023-03-14T09:00:33;14.60;99.90
18126;DHT22;53956;52.442;13.284;2023-03-14T09:02:59;14.70;99.90
18126;DHT22;53956;52.442;13.284;2023-03-14T09:05:26;14.80;99.90
18126;DHT22;53956;52.442;13.284;2023-03-14T09:07:53;14.70;99.90
18126;DHT22;53956;52.442;13.284;2023-03-14T09:10:21;14.70;99.70
18126;DHT22;53956;52.442;13.284;2023-03-14T09:12:47;14.80;99.90
18126;DHT22;53956;52.442;13.284;2023-03-14T09:15:14;15.40;97.90
18126;DHT22;53956;52.442;13.284;2023-03-14T09:17:42;16.10;96.30
18126;DHT22;53956;52.442;13.284;2023-03-14T09:20:10;16.10;94.30
18126;DHT22;53956;52.442;13.284;2023-03-14T09:22:37;16.20;93.80
18126;DHT22;53956;52.442;13.284;2023-03-14T09:25:04;16.30;93.60
18126;DHT22;53956;52.442;13.284;2023-03-14T09:27:32;16.30;93.50
18126;DHT22;53956;52.442;13.284;2023-03-14T09:29:59;16.50;92.20
18126;DHT22;53956;52.442;13.284;2023-03-14T09:32:26;16.60;92.20
18126;DHT22;53956;52.442;13.284;2023-03-14T09:34:52;16.80;91.80
18126;DHT22;53956;52.442;13.284;2023-03-14T09:37:19;16.40;91.60
18126;DHT22;53956;52.442;13.284;2023-03-14T09:39:46;16.20;92.90
18126;DHT22;53956;52.442;13.284;2023-03-14T09:42:16;16.00;92.50
18126;DHT22;53956;52.442;13.284;2023-03-14T09:44:53;15.80;92.40
18126;DHT22;53956;52.442;13.284;2023-03-14T09:47:20;15.50;92.60
18126;DHT22;53956;52.442;13.284;2023-03-14T09:49:48;15.50;93.50
18126;DHT22;53956;52.442;13.284;2023-03-14T09:52:17;15.60;93.80
18126;DHT22;53956;52.442;13.284;2023-03-14T09:54:46;15.50;93.70
18126;DHT22;53956;52.442;13.284;2023-03-14T09:57:16;15.50;94.10
18126;DHT22;53956;52.442;13.284;2023-03-14T09:59:45;15.30;95.40
18126;DHT22;53956;52.442;13.284;2023-03-14T10:02:16;15.40;94.30
18126;DHT22;53956;52.442;13.284;2023-03-14T10:04:45;15.40;93.90
18126;DHT22;53956;52.442;13.284;2023-03-14T10:07:14;15.40;93.30
18126;DHT22;53956;52.442;13.284;2023-03-14T10:09:43;15.30;94.50
18126;DHT22;53956;52.442;13.284;2023-03-14T10:12:10;15.30;94.80
18126;DHT22;53956;52.442;13.284;2023-03-14T10:14:46;15.40;94.90
18126;DHT22;53956;52.442;13.284;2023-03-14T10:17:14;15.30;94.50
18126;DHT22;53956;52.442;13.284;2023-03-14T10:19:53;15.30;95.10
18126;DHT22;53956;52.442;13.284;2023-03-14T10:22:21;15.30;94.80
18126;DHT22;53956;52.442;13.284;2023-03-14T10:24:51;15.30;94.70
18126;DHT22;53956;52.442;13.284;2023-03-14T10:27:20;15.30;94.80
18126;DHT22;53956;52.442;13.284;2023-03-14T10:29:56;15.30;94.10
18126;DHT22;53956;52.442;13.284;2023-03-14T10:32:28;15.20;94.20
18126;DHT22;53956;52.442;13.284;2023-03-14T10:35:17;15.20;93.40
18126;DHT22;53956;52.442;13.284;2023-03-14T10:37:51;15.20;93.50
18126;DHT22;53956;52.442;13.284;2023-03-14T10:40:19;15.20;93.40
18126;DHT22;53956;52.442;13.284;2023-03-14T10:42:47;15.10;93.90
18126;DHT22;53956;52.442;13.284;2023-03-14T10:45:30;15.10;93.00
18126;DHT22;53956;52.442;13.284;2023-03-14T10:47:59;15.10;93.00
18126;DHT22;53956;52.442;13.284;2023-03-14T10:50:31;15.20;93.40
18126;DHT22;53956;52.442;13.284;2023-03-14T10:53:02;15.10;93.70
18126;DHT22;53956;52.442;13.284;2023-03-14T10:55:40;15.20;93.60
18126;DHT22;53956;52.442;13.284;2023-03-14T10:58:20;15.20;93.40
18126;DHT22;53956;52.442;13.284;2023-03-14T11:00:54;15.20;93.90
18126;DHT22;53956;52.442;13.284;2023-03-14T11:03:26;15.20;93.60
18126;DHT22;53956;52.442;13.284;2023-03-14T11:05:57;15.30;93.50
18126;DHT22;53956;52.442;13.284;2023-03-14T11:08:27;15.20;93.40
18126;DHT22;53956;52.442;13.284;2023-03-14T11:11:07;15.30;93.80
18126;DHT22;53956;52.442;13.284;2023-03-14T11:13:39;15.20;94.10
18126;DHT22;53956;52.442;13.284;2023-03-14T11:16:15;15.30;94.30
18126;DHT22;53956;52.442;13.284;2023-03-14T11:19:11;15.20;94.30
18126;DHT22;53956;52.442;13.284;2023-03-14T11:21:46;15.20;94.50
18126;DHT22;53956;52.442;13.284;2023-03-14T11:24:31;15.20;94.80
18126;DHT22;53956;52.442;13.284;2023-03-14T11:27:00;15.30;94.70
18126;DHT22;53956;52.442;13.284;2023-03-14T11:29:37;15.40;94.70
18126;DHT22;53956;52.442;13.284;2023-03-14T11:32:13;15.30;94.80
18126;DHT22;53956;52.442;13.284;2023-03-14T11:34:43;15.30;95.40
18126;DHT22;53956;52.442;13.284;2023-03-14T11:37:14;15.40;94.70
18126;DHT22;53956;52.442;13.284;2023-03-14T11:39:47;15.30;95.20
18126;DHT22;53956;52.442;13.284;2023-03-14T11:42:17;15.10;95.80
18126;DHT22;53956;52.442;13.284;2023-03-14T11:44:45;15.10;96.60
18126;DHT22;53956;52.442;13.284;2023-03-14T11:47:17;15.10;96.90
18126;DHT22;53956;52.442;13.284;2023-03-14T11:49:48;15.10;97.00
18126;DHT22;53956;52.442;13.284;2023-03-14T11:52:23;15.20;96.70
18126;DHT22;53956;52.442;13.284;2023-03-14T11:54:54;15.20;97.90
18126;DHT22;53956;52.442;13.284;2023-03-14T11:57:22;15.20;97.30
18126;DHT22;53956;52.442;13.284;2023-03-14T11:59:54;15.20;97.40
18126;DHT22;53956;52.442;13.284;2023-03-14T12:02:27;15.30;97.50
18126;DHT22;53956;52.442;13.284;2023-03-14T12:05:22;15.40;98.00
18126;DHT22;53956;52.442;13.284;2023-03-14T12:11:04;15.30;98.20
18126;DHT22;53956;52.442;13.284;2023-03-14T12:13:34;15.30;98.00
18126;DHT22;53956;52.442;13.284;2023-03-14T12:16:05;15.30;97.80
18126;DHT22;53956;52.442;13.284;2023-03-14T12:18:35;15.30;97.10
18126;DHT22;53956;52.442;13.284;2023-03-14T12:21:06;15.40;97.50
18126;DHT22;53956;52.442;13.284;2023-03-14T12:23:37;15.20;97.30
18126;DHT22;53956;52.442;13.284;2023-03-14T12:26:15;15.30;97.20
18126;DHT22;53956;52.442;13.284;2023-03-14T12:28:43;15.40;96.70
18126;DHT22;53956;52.442;13.284;2023-03-14T12:31:36;15.40;96.40
18126;DHT22;53956;52.442;13.284;2023-03-14T12:34:30;15.50;97.40
18126;DHT22;53956;52.442;13.284;2023-03-14T12:37:28;15.40;98.70
18126;DHT22;53956;52.442;13.284;2023-03-14T12:40:17;15.40;99.90
18126;DHT22;53956;52.442;13.284;2023-03-14T12:42:56;15.40;99.90
18126;DHT22;53956;52.442;13.284;2023-03-14T12:45:27;15.40;99.20
18126;DHT22;53956;52.442;13.284;2023-03-14T12:47:56;15.40;98.80
18126;DHT22;53956;52.442;13.284;2023-03-14T12:50:31;15.40;99.00
18126;DHT22;53956;52.442;13.284;2023-03-14T12:53:37;15.40;97.30
18126;DHT22;53956;52.442;13.284;2023-03-14T12:56:16;15.50;97.60
18126;DHT22;53956;52.442;13.284;2023-03-14T12:58:57;15.40;99.40
18126;DHT22;53956;52.442;13.284;2023-03-14T13:01:26;15.30;99.90
18126;DHT22;53956;52.442;13.284;2023-03-14T13:03:55;15.30;99.90
18126;DHT22;53956;52.442;13.284;2023-03-14T13:06:46;15.20;99.90
18126;DHT22;53956;52.442;13.284;2023-03-14T13:09:48;15.20;99.90
18126;DHT22;53956;52.442;13.284;2023-03-14T13:12:17;15.30;99.90
18126;DHT22;53956;52.442;13.284;2023-03-14T13:14:46;15.20;99.90
18126;DHT22;53956;52.442;13.284;2023-03-14T13:17:15;15.10;99.90
18126;DHT22;53956;52.442;13.284;2023-03-14T13:19:43;15.00;99.90
18126;DHT22;53956;52.442;13.284;2023-03-14T13:22:19;15.20;99.90
18126;DHT22;53956;52.442;13.284;2023-03-14T13:24:47;15.20;99.90
18126;DHT22;53956;52.442;13.284;2023-03-14T13:27:17;15.20;99.90
18126;DHT22;53956;52.442;13.284;2023-03-14T13:29:44;15.40;99.90
18126;DHT22;53956;52.442;13.284;2023-03-14T13:32:18;15.50;99.90
18126;DHT22;53956;52.442;13.284;2023-03-14T13:34:45;15.60;99.90
18126;DHT22;53956;52.442;13.284;2023-03-14T13:37:19;15.60;99.90
18126;DHT22;53956;52.442;13.284;2023-03-14T13:39:50;15.60;99.90
18126;DHT22;53956;52.442;13.284;2023-03-14T13:42:17;15.60;99.90
18126;DHT22;53956;52.442;13.284;2023-03-14T13:44:45;15.50;99.10
18126;DHT22;53956;52.442;13.284;2023-03-14T13:47:15;15.50;98.80
18126;DHT22;53956;52.442;13.284;2023-03-14T13:49:43;15.60;99.40
18126;DHT22;53956;52.442;13.284;2023-03-14T13:52:32;15.60;99.00
18126;DHT22;53956;52.442;13.284;2023-03-14T13:55:05;15.60;99.80
18126;DHT22;53956;52.442;13.284;2023-03-14T13:57:43;15.60;99.60
18126;DHT22;53956;52.442;13.284;2023-03-14T14:00:17;15.70;99.90
18126;DHT22;53956;52.442;13.284;2023-03-14T14:02:44;15.70;99.90
18126;DHT22;53956;52.442;13.284;2023-03-14T14:05:12;15.60;98.80
18126;DHT22;53956;52.442;13.284;2023-03-14T14:07:39;15.70;99.20
18126;DHT22;53956;52.442;13.284;2023-03-14T14:10:10;15.90;98.80
18126;DHT22;53956;52.442;13.284;2023-03-14T14:12:40;15.80;99.50
18126;DHT22;53956;52.442;13.284;2023-03-14T14:15:11;15.80;98.80
18126;DHT22;53956;52.442;13.284;2023-03-14T14:17:42;15.70;99.40
18126;DHT22;53956;52.442;13.284;2023-03-14T14:20:14;15.70;99.50
18126;DHT22;53956;52.442;13.284;2023-03-14T14:22:45;15.60;99.30
18126;DHT22;53956;52.442;13.284;2023-03-14T14:25:14;15.50;99.90
18126;DHT22;53956;52.442;13.284;2023-03-14T14:27:44;15.40;99.90
18126;DHT22;53956;52.442;13.284;2023-03-14T14:30:26;15.40;99.90
18126;DHT22;53956;52.442;13.284;2023-03-14T14:33:11;15.60;98.40
18126;DHT22;53956;52.442;13.284;2023-03-14T14:35:39;15.60;98.20
18126;DHT22;53956;52.442;13.284;2023-03-14T14:38:12;15.60;97.90
18126;DHT22;53956;52.442;13.284;2023-03-14T14:40:45;15.60;97.70
18126;DHT22;53956;52.442;13.284;2023-03-14T14:43:17;15.70;97.80
18126;DHT22;53956;52.442;13.284;2023-03-14T14:45:48;15.60;97.90
18126;DHT22;53956;52.442;13.284;2023-03-14T14:48:15;15.50;98.20
18126;DHT22;53956;52.442;13.284;2023-03-14T14:50:54;15.60;98.10
18126;DHT22;53956;52.442;13.284;2023-03-14T14:53:25;15.50;98.20
18126;DHT22;53956;52.442;13.284;2023-03-14T14:55:55;15.50;97.60
18126;DHT22;53956;52.442;13.284;2023-03-14T14:58:24;15.40;99.40
18126;DHT22;53956;52.442;13.284;2023-03-14T15:00:55;15.40;98.00
18126;DHT22;53956;52.442;13.284;2023-03-14T15:03:22;15.50;98.70
18126;DHT22;53956;52.442;13.284;2023-03-14T15:05:53;15.50;98.50
18126;DHT22;53956;52.442;13.284;2023-03-14T15:08:20;15.40;99.70
18126;DHT22;53956;52.442;13.284;2023-03-14T15:10:48;15.30;99.90
18126;DHT22;53956;52.442;13.284;2023-03-14T15:13:16;15.30;99.90
18126;DHT22;53956;52.442;13.284;2023-03-14T15:15:43;15.00;99.90
18126;DHT22;53956;52.442;13.284;2023-03-14T15:18:13;14.60;99.90
18126;DHT22;53956;52.442;13.284;2023-03-14T15:20:41;13.50;99.90
18126;DHT22;53956;52.442;13.284;2023-03-14T15:23:10;13.00;99.90
18126;DHT22;53956;52.442;13.284;2023-03-14T15:25:37;12.70;99.90
18126;DHT22;53956;52.442;13.284;2023-03-14T15:28:14;12.20;99.90
18126;DHT22;53956;52.442;13.284;2023-03-14T15:30:42;12.00;99.90
18126;DHT22;53956;52.442;13.284;2023-03-14T15:33:09;11.70;99.90
18126;DHT22;53956;52.442;13.284;2023-03-14T15:35:36;11.60;99.90
18126;DHT22;53956;52.442;13.284;2023-03-14T15:38:03;11.40;99.90
18126;DHT22;53956;52.442;13.284;2023-03-14T15:40:31;11.20;99.90
18126;DHT22;53956;52.442;13.284;2023-03-14T15:42:57;11.10;99.90